LiveATC.Net - Listen to live air traffic control over the Internet!


ICAO: 3Y3  IATA: 3Y3   Airport: Winterset Municipal Airport
City: Winterset   State/Province: Iowa
Country: United States   Continent: North America
KDSM METAR Weather: KDSM 220854Z 31007KT 10SM CLR M07/M12 A3040 RMK AO2 SLP307 T10671117 51015
3Y3 Flight Activity (FlightAware)
3Y3 Airport Info   (AirNav) (iFlightPlanner)
3Y3 VFR Sectional Chart   (iFlightPlanner) 
3Y3 IFR Low Chart   (iFlightPlanner) 
3Y3 CTAF
Feed Status: DOWN
Last heard on: 2017-07-26 13:38:03 (118 days 19 hours 32 minutes ago)
3Y3 CTAF Audio Archives
FacilityFrequency
Winterset CTAF122.700

Feed sponsored by: Winterset Aero Club & Winterset Aviation Services

NOTICE

Unauthorized use prohibited. See LiveATC.net Terms of Service


Find LiveATC Audio Streams


Airport/ARTCC Code

Frequency Search
(e.g., 124.400, 128.75)
Site-wide search
 


Browse LiveATC Feeds
LiveATC Coverage Map
Top 50 LiveATC Feeds
Bad Weather Areas

LiveATC FAQ
Offer a LiveATC Feed
Contact LiveATC.net
Press Inquiries

LiveATC on iPhone
LiveATC on Android

Windows Phone
Windows 8/10

LiveATC Mobile
(Mobile browser)

ATC Audio Archives
Interesting Recordings

LiveATC Forums


Home Page
About LiveATC.net
Make a Donation
Terms of Use
Privacy Policy

Canadian Air Freqs

AIRMETs/SIGMETs

FAA Airport Status
Nat'l Airspace Status
Arrival Demand Charts


Server Software By:
Icecast.org
Liquidsoap